createdAt,value
2017-09-02T00:01:07.979Z,90.50
2017-09-02T00:04:05.823Z,90.40
2017-09-02T00:07:03.644Z,90.10
2017-09-02T00:10:09.504Z,90.10
2017-09-02T00:13:07.376Z,90.20
2017-09-02T00:16:05.134Z,90.40
2017-09-02T00:19:05.883Z,90.80
2017-09-02T00:22:04.573Z,90.50
2017-09-02T00:25:02.338Z,90.30
2017-09-02T00:28:01.193Z,90.10
2017-09-02T00:30:58.884Z,88.70
2017-09-02T00:33:56.734Z,88.10
2017-09-02T00:36:54.703Z,89.20
2017-09-02T00:39:51.856Z,89.50
2017-09-02T00:42:49.571Z,89.60
2017-09-02T00:45:46.952Z,89.40
2017-09-02T00:48:44.643Z,88.10
2017-09-02T00:51:42.232Z,87.90
2017-09-02T00:54:40.034Z,87.40
2017-09-02T00:57:37.612Z,87.30
2017-09-02T01:00:35.207Z,87.50
2017-09-02T01:03:34.980Z,88.70
2017-09-02T01:06:32.616Z,88.20
2017-09-02T01:09:33.403Z,88.40
2017-09-02T01:12:31.019Z,89.10
2017-09-02T01:15:28.533Z,88.90
2017-09-02T01:18:26.551Z,88.00
2017-09-02T01:21:24.530Z,87.00
2017-09-02T01:24:22.118Z,87.80
2017-09-02T01:27:19.600Z,88.70
2017-09-02T01:30:23.319Z,90.20
2017-09-02T01:33:21.844Z,90.10
2017-09-02T01:36:25.336Z,90.50
2017-09-02T01:39:22.835Z,90.90
2017-09-02T01:42:20.356Z,90.60
2017-09-02T01:45:27.388Z,90.10
2017-09-02T01:48:24.945Z,90.00
2017-09-02T01:51:24.512Z,90.20
2017-09-02T01:54:22.181Z,90.40
2017-09-02T01:57:20.826Z,90.20
2017-09-02T02:00:18.862Z,90.30
2017-09-02T02:03:16.743Z,90.80
2017-09-02T02:06:14.629Z,90.90
2017-09-02T02:09:12.324Z,91.10
2017-09-02T02:12:10.030Z,91.30
2017-09-02T02:15:07.680Z,91.40
2017-09-02T02:18:05.512Z,91.30
2017-09-02T02:21:03.064Z,91.00
2017-09-02T02:24:00.796Z,90.80
2017-09-02T02:26:58.428Z,91.00
2017-09-02T02:29:57.100Z,91.10
2017-09-02T02:32:54.681Z,91.20
2017-09-02T02:35:52.200Z,91.30
2017-09-02T02:38:49.823Z,90.60
2017-09-02T02:41:47.392Z,90.90
2017-09-02T02:44:45.141Z,91.10
2017-09-02T02:47:42.723Z,91.00
2017-09-02T02:50:43.345Z,91.00
2017-09-02T02:53:41.000Z,91.10
2017-09-02T02:56:38.740Z,90.90
2017-09-02T02:59:36.560Z,91.00
2017-09-02T03:02:34.074Z,91.40
2017-09-02T03:05:33.671Z,91.80
2017-09-02T03:08:32.172Z,91.50
2017-09-02T03:11:29.913Z,91.90
2017-09-02T03:14:27.800Z,92.20
2017-09-02T03:17:25.549Z,92.50
2017-09-02T03:20:24.420Z,92.80
2017-09-02T03:23:21.892Z,92.80
2017-09-02T03:26:25.812Z,92.70
2017-09-02T03:29:23.695Z,92.90
2017-09-02T03:32:21.209Z,93.00
2017-09-02T03:35:18.796Z,93.30
2017-09-02T03:38:16.478Z,93.30
2017-09-02T03:41:14.217Z,93.40
2017-09-02T03:44:11.743Z,93.80
2017-09-02T03:47:09.317Z,93.70
2017-09-02T03:50:06.976Z,93.80
2017-09-02T03:53:05.637Z,93.80
2017-09-02T03:56:03.415Z,93.90
2017-09-02T03:59:00.901Z,93.70
2017-09-02T04:02:01.502Z,93.90
2017-09-02T04:04:59.206Z,94.10
2017-09-02T04:07:57.011Z,94.30
2017-09-02T04:10:54.931Z,94.70
2017-09-02T04:13:52.449Z,95.00
2017-09-02T04:16:50.218Z,95.10
2017-09-02T04:19:47.781Z,94.80
2017-09-02T04:22:46.577Z,94.50
2017-09-02T04:25:44.193Z,94.70
2017-09-02T04:28:41.798Z,94.80
2017-09-02T04:31:39.536Z,95.10
2017-09-02T04:34:37.028Z,95.20
2017-09-02T04:37:34.583Z,95.30
2017-09-02T04:40:32.220Z,95.10
2017-09-02T04:43:30.837Z,95.00
2017-09-02T04:46:29.656Z,95.00
2017-09-02T04:49:27.263Z,95.00
2017-09-02T04:52:24.768Z,94.90
2017-09-02T04:55:22.468Z,94.60
2017-09-02T04:58:20.243Z,94.50
2017-09-02T05:01:17.844Z,94.60
2017-09-02T05:04:15.504Z,94.60
2017-09-02T05:07:13.233Z,94.90
2017-09-02T05:10:10.987Z,95.00
2017-09-02T05:13:08.406Z,94.70
2017-09-02T05:16:05.871Z,94.90
2017-09-02T05:19:03.291Z,95.00
2017-09-02T05:22:01.051Z,95.00
2017-09-02T05:24:58.667Z,95.20
2017-09-02T05:27:56.232Z,95.10
2017-09-02T05:30:54.060Z,94.90
2017-09-02T05:33:51.891Z,95.10
2017-09-02T05:36:49.692Z,94.90
2017-09-02T05:39:48.660Z,94.30
2017-09-02T05:42:46.359Z,94.30
2017-09-02T05:45:47.036Z,94.20
2017-09-02T05:48:44.823Z,94.20
2017-09-02T05:51:42.306Z,94.40
2017-09-02T05:54:39.925Z,94.00
2017-09-02T05:57:37.638Z,93.80
2017-09-02T06:00:35.264Z,94.00
2017-09-02T06:03:32.980Z,94.10
2017-09-02T06:06:30.555Z,94.00
2017-09-02T06:09:29.628Z,93.60
2017-09-02T06:12:27.210Z,93.30
2017-09-02T06:15:25.854Z,93.10
2017-09-02T06:18:24.286Z,93.10
2017-09-02T06:21:22.112Z,93.00
2017-09-02T06:24:19.571Z,92.90
2017-09-02T06:27:17.336Z,92.70
2017-09-02T06:30:14.820Z,92.40
2017-09-02T06:33:12.342Z,92.10
2017-09-02T06:36:10.139Z,92.20
2017-09-02T06:39:07.753Z,91.70
2017-09-02T06:42:05.228Z,92.30
2017-09-02T06:45:03.848Z,91.70
2017-09-02T06:48:01.696Z,91.40
2017-09-02T06:50:59.184Z,91.40
2017-09-02T06:53:56.716Z,91.50
2017-09-02T06:56:54.175Z,91.50
2017-09-02T06:59:54.781Z,91.20
2017-09-02T07:02:52.531Z,91.30
2017-09-02T07:05:49.965Z,91.40
2017-09-02T07:08:47.568Z,90.80
2017-09-02T07:11:45.234Z,90.80
2017-09-02T07:14:44.183Z,91.00
2017-09-02T07:17:41.773Z,91.50
2017-09-02T07:20:39.633Z,91.00
2017-09-02T07:23:37.767Z,90.80
2017-09-02T07:26:35.354Z,91.60
2017-09-02T07:29:34.012Z,90.70
2017-09-02T07:32:31.623Z,90.90
2017-09-02T07:35:31.220Z,91.10
2017-09-02T07:38:29.734Z,91.70
2017-09-02T07:41:27.280Z,91.50
2017-09-02T07:44:28.182Z,91.70
2017-09-02T07:47:26.039Z,91.50
2017-09-02T07:50:26.643Z,90.90
2017-09-02T07:53:26.259Z,91.20
2017-09-02T07:56:23.791Z,91.40
2017-09-02T07:59:21.484Z,91.10
2017-09-02T08:02:20.268Z,90.90
2017-09-02T08:05:18.137Z,90.60
2017-09-02T08:08:26.481Z,90.30
2017-09-02T08:11:26.067Z,90.10
2017-09-02T08:14:26.320Z,90.30
2017-09-02T08:17:27.800Z,90.50
2017-09-02T08:20:25.457Z,90.50
2017-09-02T08:23:24.151Z,91.00
2017-09-02T08:26:21.867Z,90.80
2017-09-02T08:29:19.468Z,91.20
2017-09-02T08:32:18.997Z,91.50
2017-09-02T08:35:17.636Z,92.20
2017-09-02T08:38:15.232Z,92.30
2017-09-02T08:41:12.877Z,92.80
2017-09-02T08:44:10.324Z,93.10
2017-09-02T08:47:08.036Z,93.70
2017-09-02T08:50:05.482Z,94.10
2017-09-02T08:53:04.071Z,93.80
2017-09-02T08:56:02.037Z,94.00
2017-09-02T08:58:59.617Z,94.30
2017-09-02T09:01:59.233Z,94.30
2017-09-02T09:04:58.663Z,93.60
2017-09-02T09:07:56.074Z,93.10
2017-09-02T09:10:56.832Z,93.30
2017-09-02T09:13:54.432Z,92.50
2017-09-02T09:16:51.845Z,92.90
2017-09-02T09:19:49.331Z,93.30
2017-09-02T09:22:46.991Z,93.40
2017-09-02T09:25:46.768Z,93.70
2017-09-02T09:28:44.400Z,93.60
2017-09-02T09:31:41.899Z,92.70
2017-09-02T09:34:39.643Z,93.20
2017-09-02T09:37:37.256Z,93.50
2017-09-02T09:40:35.975Z,94.40
2017-09-02T09:43:33.600Z,94.40
2017-09-02T09:46:31.504Z,94.60
2017-09-02T09:49:29.217Z,95.20
2017-09-02T09:52:26.740Z,95.60
2017-09-02T09:55:24.238Z,96.30
2017-09-02T09:58:21.684Z,94.90
2017-09-02T10:01:19.112Z,94.60
2017-09-02T10:04:16.508Z,94.60
2017-09-02T10:07:16.299Z,94.00
2017-09-02T10:10:17.024Z,93.80
2017-09-02T10:13:16.985Z,93.60
2017-09-02T10:16:14.596Z,93.30
2017-09-02T10:19:18.062Z,92.60
2017-09-02T10:22:16.985Z,92.10
2017-09-02T10:25:14.463Z,92.50
2017-09-02T10:28:12.262Z,91.40
2017-09-02T10:31:11.009Z,91.80
2017-09-02T10:34:08.790Z,91.80
2017-09-02T10:37:06.532Z,91.50
2017-09-02T10:40:04.255Z,90.30
2017-09-02T10:43:01.763Z,89.60
2017-09-02T10:45:59.367Z,90.20
2017-09-02T10:48:56.955Z,89.90
2017-09-02T10:51:55.657Z,89.80
2017-09-02T10:54:53.404Z,90.60
2017-09-02T10:57:51.199Z,89.60
2017-09-02T11:00:49.904Z,86.00
2017-09-02T11:03:47.528Z,86.00
2017-09-02T11:06:45.195Z,83.60
2017-09-02T11:09:42.748Z,83.90
2017-09-02T11:12:40.391Z,89.40
2017-09-02T11:15:37.929Z,87.20
2017-09-02T11:18:35.908Z,88.30
2017-09-02T11:21:33.920Z,87.60
2017-09-02T11:24:34.624Z,88.60
2017-09-02T11:27:35.201Z,86.60
2017-09-02T11:30:38.220Z,87.40
2017-09-02T11:33:42.837Z,84.40
2017-09-02T11:36:47.872Z,86.80
2017-09-02T11:39:49.127Z,84.80
2017-09-02T11:42:47.003Z,83.80
2017-09-02T11:45:44.688Z,84.20
2017-09-02T11:48:42.376Z,81.40
2017-09-02T11:51:40.344Z,81.20
2017-09-02T11:54:40.290Z,79.70
2017-09-02T11:57:38.131Z,82.10
2017-09-02T12:00:35.892Z,77.30
2017-09-02T12:03:36.329Z,75.50
2017-09-02T12:06:33.966Z,77.30
2017-09-02T12:09:31.708Z,76.10
2017-09-02T12:12:29.207Z,78.00
2017-09-02T12:15:26.875Z,74.10
2017-09-02T12:18:24.360Z,74.10
2017-09-02T12:21:22.080Z,74.90
2017-09-02T12:24:19.516Z,76.10
2017-09-02T12:27:18.383Z,75.20
2017-09-02T12:30:19.221Z,76.10
2017-09-02T12:33:20.113Z,74.50
2017-09-02T12:36:17.947Z,71.90
2017-09-02T12:39:15.477Z,71.50
2017-09-02T12:42:13.329Z,74.00
2017-09-02T12:45:10.912Z,74.00
2017-09-02T12:48:08.503Z,76.40
2017-09-02T12:51:05.484Z,74.70
2017-09-02T12:54:02.833Z,73.60
2017-09-02T12:57:03.707Z,73.50
2017-09-02T13:00:00.869Z,70.60
2017-09-02T13:02:58.710Z,67.60
2017-09-02T13:05:56.515Z,69.60
2017-09-02T13:08:55.123Z,66.40
2017-09-02T13:11:58.793Z,70.50
2017-09-02T13:14:56.144Z,73.10
2017-09-02T13:17:53.908Z,68.40
2017-09-02T13:20:51.630Z,69.20
2017-09-02T13:23:49.241Z,68.00
2017-09-02T13:26:46.873Z,68.60
2017-09-02T13:29:44.361Z,67.30
2017-09-02T13:32:42.005Z,64.70
2017-09-02T13:35:39.541Z,61.10
2017-09-02T13:38:38.184Z,61.50
2017-09-02T13:41:36.249Z,60.70
2017-09-02T13:44:34.156Z,59.30
2017-09-02T13:47:34.783Z,57.40
2017-09-02T13:50:39.797Z,61.50
2017-09-02T13:53:37.396Z,60.10
2017-09-02T13:56:35.047Z,61.50
2017-09-02T13:59:33.004Z,61.80
2017-09-02T14:02:30.758Z,60.50
2017-09-02T14:05:29.259Z,58.20
2017-09-02T14:08:26.917Z,58.70
2017-09-02T14:11:24.823Z,60.50
2017-09-02T14:14:22.414Z,60.10
2017-09-02T14:17:20.052Z,62.50
2017-09-02T14:20:17.940Z,61.80
2017-09-02T14:23:15.579Z,59.20
2017-09-02T14:26:13.249Z,57.00
2017-09-02T14:29:10.687Z,54.40
2017-09-02T14:32:08.271Z,58.50
2017-09-02T14:35:05.903Z,60.70
2017-09-02T14:38:03.738Z,61.10
2017-09-02T14:41:01.514Z,63.90
2017-09-02T14:43:59.212Z,64.50
2017-09-02T14:46:57.976Z,66.10
2017-09-02T14:49:55.648Z,65.80
2017-09-02T14:52:53.240Z,64.00
2017-09-02T14:55:50.909Z,63.30
2017-09-02T14:58:48.467Z,65.90
2017-09-02T15:01:46.161Z,65.20
2017-09-02T15:04:43.950Z,62.80
2017-09-02T15:07:41.480Z,61.40
2017-09-02T15:12:27.919Z,60.50
2017-09-02T15:15:32.904Z,61.70
2017-09-02T15:18:41.816Z,61.00
2017-09-02T15:21:46.835Z,62.20
2017-09-02T15:24:53.551Z,62.50
2017-09-02T15:27:58.812Z,63.00
2017-09-02T15:31:04.136Z,63.60
2017-09-02T15:34:09.347Z,64.10
2017-09-02T15:37:14.412Z,64.90
2017-09-02T15:40:19.831Z,65.30
2017-09-02T15:43:25.249Z,63.60
2017-09-02T15:46:30.033Z,62.60
2017-09-02T15:49:34.912Z,64.30
2017-09-02T15:52:42.872Z,63.70
2017-09-02T15:55:48.079Z,64.00
2017-09-02T15:58:53.664Z,63.70
2017-09-02T16:01:59.231Z,64.90
2017-09-02T16:05:04.579Z,64.90
2017-09-02T16:08:11.608Z,65.00
2017-09-02T16:11:18.155Z,64.50
2017-09-02T16:14:22.613Z,65.10
2017-09-02T16:17:27.520Z,65.20
2017-09-02T16:20:32.312Z,65.90
2017-09-02T16:23:37.104Z,64.60
2017-09-02T16:26:42.192Z,65.40
2017-09-02T16:29:47.398Z,66.40
2017-09-02T16:32:55.996Z,65.80
2017-09-02T16:36:01.104Z,66.50
2017-09-02T16:39:06.329Z,67.80
2017-09-02T16:42:11.832Z,68.70
2017-09-02T16:45:18.707Z,67.70
2017-09-02T16:48:23.512Z,69.60
2017-09-02T16:51:28.980Z,71.60
2017-09-02T16:54:33.893Z,73.50
2017-09-02T16:57:39.461Z,75.50
2017-09-02T17:00:44.705Z,77.60
2017-09-02T17:03:51.139Z,78.50
2017-09-02T17:06:56.121Z,79.00
2017-09-02T17:10:02.599Z,80.80
2017-09-02T17:13:07.740Z,80.00
2017-09-02T17:16:16.679Z,81.90
2017-09-02T17:19:26.779Z,81.90
2017-09-02T17:22:31.581Z,82.70
2017-09-02T17:25:40.347Z,85.10
2017-09-02T17:28:45.326Z,87.40
2017-09-02T17:31:53.755Z,89.60
2017-09-02T17:35:01.382Z,90.80
2017-09-02T17:38:07.380Z,91.90
2017-09-02T17:41:13.060Z,92.30
2017-09-02T17:44:18.696Z,92.50
2017-09-02T17:47:24.115Z,92.90
2017-09-02T17:50:29.190Z,94.20
2017-09-02T17:53:34.349Z,94.80
2017-09-02T17:56:39.623Z,95.40
2017-09-02T17:59:46.323Z,95.80
2017-09-02T18:02:51.525Z,96.40
2017-09-02T18:05:56.519Z,96.60
2017-09-02T18:09:02.172Z,96.60
2017-09-02T18:12:07.192Z,96.80
2017-09-02T18:15:12.952Z,96.80
2017-09-02T18:18:17.687Z,96.30
2017-09-02T18:21:22.927Z,96.20
2017-09-02T18:24:33.537Z,95.90
2017-09-02T18:27:38.329Z,95.90
2017-09-02T18:30:43.899Z,95.70
2017-09-02T18:33:49.273Z,95.70
2017-09-02T18:36:57.243Z,95.50
2017-09-02T18:40:03.059Z,95.30
2017-09-02T18:43:08.648Z,95.30
2017-09-02T18:46:13.628Z,95.60
2017-09-02T18:49:18.623Z,95.80
2017-09-02T18:52:24.446Z,96.10
2017-09-02T18:55:29.704Z,96.10
2017-09-02T18:58:35.331Z,96.30
2017-09-02T19:01:41.350Z,96.20
2017-09-02T19:04:49.334Z,96.30
2017-09-02T19:07:55.591Z,96.50
2017-09-02T19:11:00.984Z,96.50
2017-09-02T19:14:05.872Z,96.70
2017-09-02T19:17:11.606Z,96.80
2017-09-02T19:20:16.705Z,96.60
2017-09-02T19:23:22.074Z,96.40
2017-09-02T19:26:27.019Z,96.30
2017-09-02T19:29:33.764Z,96.50
2017-09-02T19:32:38.399Z,96.60
2017-09-02T19:35:43.974Z,96.70
2017-09-02T19:38:50.437Z,96.70
2017-09-02T19:41:55.766Z,96.70
2017-09-02T19:45:01.580Z,96.80
2017-09-02T19:48:06.929Z,97.00
2017-09-02T19:51:11.992Z,97.00
2017-09-02T19:54:19.253Z,97.00
2017-09-02T19:57:24.996Z,97.00
2017-09-02T20:00:30.628Z,97.10
2017-09-02T20:03:36.059Z,97.10
2017-09-02T20:06:41.013Z,97.10
2017-09-02T20:09:46.115Z,97.40
2017-09-02T20:12:51.019Z,97.40
2017-09-02T20:15:55.827Z,97.10
2017-09-02T20:19:01.681Z,97.10
2017-09-02T20:22:06.628Z,97.10
2017-09-02T20:25:12.132Z,96.80
2017-09-02T20:28:17.224Z,96.50
2017-09-02T20:31:22.449Z,96.50
2017-09-02T20:34:29.397Z,96.80
2017-09-02T20:37:34.556Z,96.60
2017-09-02T20:40:40.685Z,96.80
2017-09-02T20:43:45.519Z,96.60
2017-09-02T20:46:51.343Z,96.40
2017-09-02T20:50:02.713Z,96.50
2017-09-02T20:53:10.600Z,96.80
2017-09-02T20:56:15.938Z,96.60
2017-09-02T20:59:21.324Z,96.20
2017-09-02T21:02:30.235Z,96.30
2017-09-02T21:05:35.777Z,96.20
2017-09-02T21:08:42.242Z,96.70
2017-09-02T21:11:47.313Z,96.70
2017-09-02T21:14:52.230Z,96.30
2017-09-02T21:17:57.341Z,96.50
2017-09-02T21:21:02.797Z,96.90
2017-09-02T21:24:08.104Z,96.70
2017-09-02T21:27:13.860Z,97.40
2017-09-02T21:30:23.904Z,98.10
2017-09-02T21:33:28.987Z,98.00
2017-09-02T21:36:34.284Z,98.00
2017-09-02T21:39:39.155Z,97.80
2017-09-02T21:42:44.832Z,97.60
2017-09-02T21:45:49.572Z,97.80
2017-09-02T21:48:56.936Z,97.80
2017-09-02T21:52:02.496Z,97.70
2017-09-02T21:55:07.632Z,97.60
2017-09-02T21:58:13.202Z,97.20
2017-09-02T22:01:19.137Z,97.20
2017-09-02T22:04:24.203Z,97.50
2017-09-02T22:07:29.352Z,97.10
2017-09-02T22:10:34.278Z,97.20
2017-09-02T22:13:40.288Z,96.80
2017-09-02T22:16:45.917Z,96.60
2017-09-02T22:19:51.207Z,96.80
2017-09-02T22:22:56.443Z,96.90
2017-09-02T22:26:02.144Z,97.10
2017-09-02T22:29:10.671Z,96.80
2017-09-02T22:32:17.932Z,96.50
2017-09-02T22:35:24.811Z,96.50
2017-09-02T22:38:30.105Z,96.50
2017-09-02T22:41:35.972Z,96.60
2017-09-02T22:44:45.346Z,96.50
2017-09-02T22:47:50.981Z,96.30
2017-09-02T22:50:56.293Z,96.30
2017-09-02T22:54:01.576Z,96.40
2017-09-02T22:57:07.279Z,96.30
2017-09-02T23:00:12.357Z,96.70
2017-09-02T23:03:17.996Z,96.80
2017-09-02T23:06:27.557Z,97.00
2017-09-02T23:09:32.361Z,97.00
2017-09-02T23:12:37.591Z,97.00
2017-09-02T23:15:42.517Z,96.90
2017-09-02T23:18:48.091Z,96.80
2017-09-02T23:21:53.704Z,96.70
2017-09-02T23:25:00.737Z,96.40
2017-09-02T23:28:05.792Z,96.30
2017-09-02T23:31:10.668Z,96.10
2017-09-02T23:34:15.915Z,96.30
2017-09-02T23:37:23.471Z,96.70
2017-09-02T23:40:28.691Z,96.60
2017-09-02T23:43:33.599Z,96.60
2017-09-02T23:46:41.363Z,96.50
2017-09-02T23:49:49.074Z,96.40
2017-09-02T23:52:54.819Z,96.30
2017-09-02T23:56:01.095Z,96.10
2017-09-02T23:59:06.680Z,95.90
